createdAt,value
2022-08-29T00:00:17.800Z,18.42
2022-08-29T00:02:48.784Z,18.07
2022-08-29T00:05:18.839Z,18.40
2022-08-29T00:07:47.423Z,18.38
2022-08-29T00:10:16.191Z,18.22
2022-08-29T00:12:45.537Z,18.16
2022-08-29T00:15:14.763Z,18.11
2022-08-29T00:17:43.273Z,18.15
2022-08-29T00:20:13.814Z,18.04
2022-08-29T00:22:42.208Z,18.09
2022-08-29T00:25:11.635Z,18.17
2022-08-29T00:27:40.108Z,18.22
2022-08-29T00:30:13.254Z,18.25
2022-08-29T00:32:41.658Z,18.22
2022-08-29T00:35:15.399Z,18.16
2022-08-29T00:37:44.055Z,18.28
2022-08-29T00:40:15.500Z,18.20
2022-08-29T00:42:43.939Z,18.05
2022-08-29T00:45:12.840Z,17.97
2022-08-29T00:47:46.828Z,17.85
2022-08-29T00:50:31.857Z,17.88
2022-08-29T00:53:00.545Z,17.94
2022-08-29T00:55:30.671Z,17.85
2022-08-29T00:58:02.657Z,17.91
2022-08-29T01:00:31.034Z,17.75
2022-08-29T01:02:59.294Z,17.79
2022-08-29T01:05:28.222Z,17.70
2022-08-29T01:07:56.565Z,17.65
2022-08-29T01:10:43.896Z,17.61
2022-08-29T01:13:12.687Z,17.52
2022-08-29T01:15:41.515Z,17.58
2022-08-29T01:18:10.029Z,17.62
2022-08-29T01:20:51.256Z,17.65
2022-08-29T01:23:34.892Z,17.72
2022-08-29T01:26:03.227Z,17.60
2022-08-29T01:28:35.136Z,17.76
2022-08-29T01:31:13.028Z,17.63
2022-08-29T01:33:45.741Z,17.51
2022-08-29T01:36:16.497Z,17.44
2022-08-29T01:38:45.487Z,17.29
2022-08-29T01:41:14.864Z,17.26
2022-08-29T01:43:54.567Z,17.16
2022-08-29T01:46:28.595Z,17.11
2022-08-29T01:48:57.674Z,17.06
2022-08-29T01:51:25.993Z,17.02
2022-08-29T01:53:54.314Z,17.17
2022-08-29T01:56:25.280Z,17.09
2022-08-29T01:58:54.034Z,17.21
2022-08-29T02:01:25.370Z,17.19
2022-08-29T02:03:53.960Z,17.05
2022-08-29T02:06:23.456Z,17.14
2022-08-29T02:08:51.809Z,17.10
2022-08-29T02:11:20.388Z,17.06
2022-08-29T02:13:50.684Z,16.85
2022-08-29T02:16:19.882Z,16.73
2022-08-29T02:18:48.908Z,16.88
2022-08-29T02:21:18.421Z,16.91
2022-08-29T02:23:50.287Z,17.03
2022-08-29T02:26:19.872Z,17.04
2022-08-29T02:28:49.085Z,16.97
2022-08-29T02:31:17.458Z,17.02
2022-08-29T02:33:46.892Z,16.85
2022-08-29T02:36:16.240Z,17.00
2022-08-29T02:38:46.328Z,17.10
2022-08-29T02:41:14.803Z,17.04
2022-08-29T02:43:43.318Z,17.05
2022-08-29T02:46:16.799Z,17.09
2022-08-29T02:48:49.224Z,16.81
2022-08-29T02:51:30.862Z,16.84
2022-08-29T02:53:59.641Z,16.88
2022-08-29T02:56:28.857Z,16.90
2022-08-29T02:58:57.715Z,16.94
2022-08-29T03:01:26.610Z,16.84
2022-08-29T03:03:55.004Z,16.90
2022-08-29T03:06:23.390Z,16.94
2022-08-29T03:08:51.737Z,16.76
2022-08-29T03:11:23.622Z,16.71
2022-08-29T03:13:52.517Z,16.67
2022-08-29T03:16:26.782Z,16.66
2022-08-29T03:18:55.850Z,16.67
2022-08-29T03:21:26.720Z,16.71
2022-08-29T03:23:56.649Z,16.67
2022-08-29T03:26:25.045Z,16.79
2022-08-29T03:28:54.452Z,16.52
2022-08-29T03:31:22.782Z,16.69
2022-08-29T03:33:51.218Z,16.61
2022-08-29T03:36:20.215Z,16.50
2022-08-29T03:38:49.748Z,16.40
2022-08-29T03:41:26.156Z,16.46
2022-08-29T03:43:59.862Z,16.40
2022-08-29T03:46:28.971Z,16.41
2022-08-29T03:48:57.902Z,16.43
2022-08-29T03:51:29.361Z,16.41
2022-08-29T03:53:58.566Z,16.37
2022-08-29T03:56:28.002Z,16.48
2022-08-29T03:58:56.997Z,16.37
2022-08-29T04:01:27.115Z,16.28
2022-08-29T04:03:56.520Z,16.36
2022-08-29T04:06:25.560Z,16.38
2022-08-29T04:08:53.859Z,16.42
2022-08-29T04:11:24.505Z,16.42
2022-08-29T04:13:53.805Z,16.20
2022-08-29T04:16:30.957Z,16.34
2022-08-29T04:19:00.081Z,16.24
2022-08-29T04:21:28.545Z,16.24
2022-08-29T04:23:56.988Z,16.39
2022-08-29T04:26:41.008Z,16.31
2022-08-29T04:29:10.487Z,16.33
2022-08-29T04:31:40.032Z,16.27
2022-08-29T04:34:10.249Z,16.35
2022-08-29T04:36:39.371Z,16.37
2022-08-29T04:39:08.675Z,16.30
2022-08-29T04:41:37.074Z,16.37
2022-08-29T04:44:05.979Z,16.35
2022-08-29T04:46:34.457Z,16.41
2022-08-29T04:49:04.438Z,16.39
2022-08-29T04:51:34.681Z,16.51
2022-08-29T04:54:04.273Z,16.67
2022-08-29T04:56:32.665Z,16.57
2022-08-29T04:59:03.473Z,16.57
2022-08-29T05:01:32.020Z,16.60
2022-08-29T05:04:01.019Z,16.71
2022-08-29T05:06:29.325Z,16.70
2022-08-29T05:08:59.018Z,16.76
2022-08-29T05:11:32.437Z,16.82
2022-08-29T05:14:00.845Z,16.87
2022-08-29T05:16:30.672Z,16.88
2022-08-29T05:18:59.996Z,16.97
2022-08-29T05:21:36.104Z,16.92
2022-08-29T05:24:06.450Z,16.90
2022-08-29T05:26:37.236Z,17.01
2022-08-29T05:29:09.025Z,16.87
2022-08-29T05:31:38.859Z,16.97
2022-08-29T05:34:11.300Z,17.13
2022-08-29T05:36:56.087Z,17.13
2022-08-29T05:39:24.472Z,17.36
2022-08-29T05:41:55.694Z,17.27
2022-08-29T05:44:24.182Z,17.23
2022-08-29T05:46:52.489Z,17.37
2022-08-29T05:49:21.113Z,17.52
2022-08-29T05:51:53.509Z,17.50
2022-08-29T05:54:22.067Z,17.69
2022-08-29T05:56:51.273Z,17.65
2022-08-29T05:59:19.757Z,17.63
2022-08-29T06:01:48.114Z,17.69
2022-08-29T06:04:16.545Z,17.81
2022-08-29T06:06:45.080Z,17.81
2022-08-29T06:09:13.519Z,17.87
2022-08-29T06:11:41.923Z,17.92
2022-08-29T06:14:12.377Z,17.98
2022-08-29T06:16:40.835Z,18.05
2022-08-29T06:19:09.293Z,18.01
2022-08-29T06:21:38.038Z,18.17
2022-08-29T06:24:06.631Z,18.20
2022-08-29T06:26:35.241Z,18.11
2022-08-29T06:29:08.251Z,18.18
2022-08-29T06:31:36.744Z,18.23
2022-08-29T06:34:05.931Z,18.32
2022-08-29T06:36:36.842Z,18.40
2022-08-29T06:39:07.979Z,18.45
2022-08-29T06:41:37.848Z,18.55
2022-08-29T06:44:08.368Z,18.68
2022-08-29T06:46:41.794Z,18.78
2022-08-29T06:49:12.137Z,18.80
2022-08-29T06:51:42.383Z,18.90
2022-08-29T06:54:11.775Z,19.06
2022-08-29T06:56:42.466Z,19.06
2022-08-29T06:59:11.768Z,19.14
2022-08-29T07:01:43.185Z,19.44
2022-08-29T07:04:14.711Z,19.52
2022-08-29T07:06:45.137Z,19.46
2022-08-29T07:09:13.936Z,19.58
2022-08-29T07:11:43.097Z,19.79
2022-08-29T07:14:11.945Z,19.78
2022-08-29T07:16:40.585Z,19.83
2022-08-29T07:19:10.963Z,19.93
2022-08-29T07:21:39.597Z,20.11
2022-08-29T07:24:08.150Z,20.14
2022-08-29T07:26:39.207Z,20.18
2022-08-29T07:29:10.393Z,20.40
2022-08-29T07:31:40.013Z,20.49
2022-08-29T07:34:08.526Z,20.63
2022-08-29T07:36:37.076Z,20.75
2022-08-29T07:39:08.075Z,20.88
2022-08-29T07:41:38.819Z,21.05
2022-08-29T07:44:07.273Z,21.13
2022-08-29T07:46:35.792Z,21.36
2022-08-29T07:49:04.224Z,21.45
2022-08-29T07:51:33.314Z,21.54
2022-08-29T07:54:02.110Z,21.62
2022-08-29T07:56:37.951Z,21.72
2022-08-29T07:59:06.817Z,21.98
2022-08-29T08:01:35.902Z,21.98
2022-08-29T08:04:04.643Z,22.12
2022-08-29T08:06:37.374Z,22.30
2022-08-29T08:09:05.846Z,22.32
2022-08-29T08:11:36.366Z,22.40
2022-08-29T08:14:04.870Z,22.76
2022-08-29T08:16:33.368Z,22.92
2022-08-29T08:19:01.944Z,23.10
2022-08-29T08:21:30.959Z,22.96
2022-08-29T08:23:59.929Z,23.13
2022-08-29T08:26:28.261Z,23.24
2022-08-29T08:28:56.715Z,23.37
2022-08-29T08:31:25.140Z,23.48
2022-08-29T08:33:53.703Z,23.65
2022-08-29T08:36:28.773Z,23.69
2022-08-29T08:39:00.187Z,23.81
2022-08-29T08:41:42.376Z,23.92
2022-08-29T08:44:35.296Z,24.03
2022-08-29T08:47:06.635Z,24.00
2022-08-29T08:49:42.725Z,24.33
2022-08-29T08:52:33.480Z,24.31
2022-08-29T08:55:05.889Z,24.43
2022-08-29T08:57:40.613Z,24.63
2022-08-29T09:00:13.715Z,24.57
2022-08-29T09:03:08.382Z,24.64
2022-08-29T09:06:04.179Z,24.72
2022-08-29T09:09:20.048Z,24.72
2022-08-29T09:12:11.067Z,24.86
2022-08-29T09:14:58.402Z,24.92
2022-08-29T09:17:42.144Z,25.04
2022-08-29T09:20:20.001Z,25.19
2022-08-29T09:23:23.623Z,25.17
2022-08-29T09:25:52.101Z,25.27
2022-08-29T09:28:21.203Z,25.26
2022-08-29T09:31:34.404Z,25.23
2022-08-29T09:34:05.352Z,25.26
2022-08-29T09:36:36.969Z,25.33
2022-08-29T09:39:31.641Z,25.40
2022-08-29T09:42:17.755Z,25.57
2022-08-29T09:45:26.783Z,25.66
2022-08-29T09:48:17.675Z,25.36
2022-08-29T09:50:46.647Z,25.68
2022-08-29T09:53:24.334Z,25.69
2022-08-29T09:55:53.840Z,25.66
2022-08-29T09:58:22.213Z,25.74
2022-08-29T10:01:10.060Z,25.72
2022-08-29T10:03:51.812Z,25.88
2022-08-29T10:06:26.578Z,25.95
2022-08-29T10:09:08.605Z,26.11
2022-08-29T10:11:47.803Z,26.31
2022-08-29T10:14:48.177Z,26.19
2022-08-29T10:17:37.233Z,26.23
2022-08-29T10:20:07.353Z,26.34
2022-08-29T10:22:48.350Z,26.59
2022-08-29T10:25:18.721Z,26.37
2022-08-29T10:27:51.945Z,26.39
2022-08-29T10:30:24.490Z,26.56
2022-08-29T10:33:15.918Z,26.44
2022-08-29T10:36:02.003Z,26.53
2022-08-29T10:38:44.455Z,26.79
2022-08-29T10:41:37.148Z,26.70
2022-08-29T10:44:26.563Z,26.63
2022-08-29T10:47:16.682Z,26.59
2022-08-29T10:50:27.438Z,26.70
2022-08-29T10:53:08.285Z,26.94
2022-08-29T10:55:40.281Z,26.88
2022-08-29T10:58:28.554Z,26.86
2022-08-29T11:01:06.749Z,27.07
2022-08-29T11:03:40.479Z,27.07
2022-08-29T11:06:31.064Z,27.08
2022-08-29T11:09:30.512Z,27.31
2022-08-29T11:12:14.471Z,27.31
2022-08-29T11:15:15.908Z,27.25
2022-08-29T11:17:50.729Z,27.35
2022-08-29T11:20:28.622Z,27.45
2022-08-29T11:23:14.083Z,27.49
2022-08-29T11:25:43.932Z,27.51
2022-08-29T11:28:16.497Z,27.60
2022-08-29T11:30:59.962Z,27.54
2022-08-29T11:33:40.007Z,27.32
2022-08-29T11:36:27.114Z,27.26
2022-08-29T11:39:15.729Z,27.17
2022-08-29T11:41:46.543Z,27.22
2022-08-29T11:44:42.752Z,27.27
2022-08-29T11:47:45.240Z,27.05
2022-08-29T11:50:17.496Z,26.87
2022-08-29T11:53:12.204Z,26.86
2022-08-29T11:55:45.397Z,26.99
2022-08-29T11:58:16.796Z,26.86
2022-08-29T12:00:53.062Z,26.98
2022-08-29T12:03:37.224Z,26.74
2022-08-29T12:06:27.938Z,26.75
2022-08-29T12:09:14.110Z,26.61
2022-08-29T12:12:04.853Z,26.47
2022-08-29T12:14:48.903Z,26.21
2022-08-29T12:17:17.265Z,26.11
2022-08-29T12:19:59.972Z,25.91
2022-08-29T12:23:06.489Z,25.89
2022-08-29T12:25:43.192Z,25.77
2022-08-29T12:28:31.517Z,25.77
2022-08-29T12:31:08.210Z,25.79
2022-08-29T12:33:58.711Z,25.79
2022-08-29T12:36:52.191Z,25.64
2022-08-29T12:39:47.308Z,25.65
2022-08-29T12:42:31.717Z,25.49
2022-08-29T12:45:06.117Z,25.49
2022-08-29T12:47:45.829Z,25.56
2022-08-29T12:50:23.887Z,25.41
2022-08-29T12:53:23.765Z,25.38
2022-08-29T12:56:15.000Z,25.47
2022-08-29T12:58:52.913Z,25.34
2022-08-29T13:01:31.012Z,25.39
2022-08-29T13:04:20.692Z,25.32
2022-08-29T13:06:59.106Z,25.16
2022-08-29T13:09:32.975Z,25.11
2022-08-29T13:12:09.509Z,25.02
2022-08-29T13:14:52.236Z,24.91
2022-08-29T13:17:24.407Z,24.78
2022-08-29T13:20:30.312Z,24.85
2022-08-29T13:23:26.406Z,24.84
2022-08-29T13:26:07.272Z,24.86
2022-08-29T13:28:51.447Z,24.82
2022-08-29T13:31:21.555Z,24.75
2022-08-29T13:33:49.984Z,24.71
2022-08-29T13:36:27.634Z,24.71
2022-08-29T13:39:17.672Z,24.68
2022-08-29T13:41:49.183Z,24.63
2022-08-29T13:44:20.516Z,24.57
2022-08-29T13:46:50.067Z,24.57
2022-08-29T13:49:27.811Z,24.45
2022-08-29T13:51:57.094Z,24.53
2022-08-29T13:54:26.611Z,24.53
2022-08-29T13:56:56.457Z,24.55
2022-08-29T13:59:28.641Z,24.57
2022-08-29T14:02:12.922Z,24.59
2022-08-29T14:04:42.527Z,24.54
2022-08-29T14:07:18.878Z,24.40
2022-08-29T14:09:47.514Z,24.44
2022-08-29T14:12:16.736Z,24.40
2022-08-29T14:14:45.373Z,24.37
2022-08-29T14:17:18.585Z,24.24
2022-08-29T14:19:48.037Z,24.31
2022-08-29T14:22:16.472Z,24.28
2022-08-29T14:24:54.359Z,24.21
2022-08-29T14:27:23.673Z,24.19
2022-08-29T14:29:52.047Z,24.20
2022-08-29T14:32:20.571Z,24.12
2022-08-29T14:34:51.206Z,24.14
2022-08-29T14:37:21.297Z,23.99
2022-08-29T14:39:50.575Z,23.88
2022-08-29T14:42:20.228Z,23.96
2022-08-29T14:44:48.547Z,23.90
2022-08-29T14:47:18.097Z,24.03
2022-08-29T14:49:46.457Z,23.87
2022-08-29T14:52:15.386Z,23.80
2022-08-29T14:54:43.934Z,23.88
2022-08-29T14:57:13.915Z,23.82
2022-08-29T14:59:43.395Z,23.72
2022-08-29T15:02:11.823Z,23.65
2022-08-29T15:04:41.264Z,23.65
2022-08-29T15:07:12.919Z,23.71
2022-08-29T15:09:44.471Z,23.76
2022-08-29T15:12:14.169Z,23.66
2022-08-29T15:14:42.553Z,23.70
2022-08-29T15:17:11.279Z,23.68
2022-08-29T15:22:28.903Z,23.76
2022-08-29T15:24:57.857Z,23.69
2022-08-29T15:27:27.606Z,23.66
2022-08-29T15:29:59.084Z,23.72
2022-08-29T15:32:27.440Z,23.68
2022-08-29T15:34:57.904Z,23.63
2022-08-29T15:37:27.487Z,23.57
2022-08-29T15:39:59.169Z,23.56
2022-08-29T15:42:31.413Z,23.58
2022-08-29T15:45:08.006Z,23.51
2022-08-29T15:47:37.153Z,23.54
2022-08-29T15:50:08.209Z,23.58
2022-08-29T15:52:37.295Z,23.73
2022-08-29T15:55:07.053Z,23.79
2022-08-29T15:57:42.366Z,23.82
2022-08-29T16:00:30.679Z,23.67
2022-08-29T16:03:03.584Z,23.59
2022-08-29T16:05:32.669Z,23.56
2022-08-29T16:08:04.124Z,23.55
2022-08-29T16:10:32.857Z,23.48
2022-08-29T16:13:01.871Z,23.46
2022-08-29T16:15:31.575Z,23.43
2022-08-29T16:18:00.247Z,23.36
2022-08-29T16:20:30.059Z,23.32
2022-08-29T16:22:58.937Z,23.21
2022-08-29T16:25:27.754Z,23.36
2022-08-29T16:27:57.668Z,23.26
2022-08-29T16:30:28.556Z,23.22
2022-08-29T16:32:56.972Z,23.26
2022-08-29T16:35:26.450Z,23.31
2022-08-29T16:38:02.497Z,23.20
2022-08-29T16:40:32.641Z,23.26
2022-08-29T16:43:02.724Z,23.18
2022-08-29T16:45:31.685Z,23.09
2022-08-29T16:48:00.118Z,23.07
2022-08-29T16:50:29.572Z,23.12
2022-08-29T16:52:57.969Z,23.02
2022-08-29T16:55:26.405Z,23.02
2022-08-29T16:58:13.408Z,23.11
2022-08-29T17:00:44.681Z,23.07
2022-08-29T17:03:16.809Z,22.95
2022-08-29T17:05:49.680Z,22.73
2022-08-29T17:08:18.127Z,22.60
2022-08-29T17:10:46.813Z,22.60
2022-08-29T17:13:15.539Z,22.57
2022-08-29T17:15:45.224Z,22.53
2022-08-29T17:18:13.590Z,22.35
2022-08-29T17:20:44.021Z,22.38
2022-08-29T17:23:16.651Z,22.34
2022-08-29T17:25:46.071Z,22.37
2022-08-29T17:28:18.548Z,22.27
2022-08-29T17:30:49.120Z,22.25
2022-08-29T17:33:18.403Z,22.32
2022-08-29T17:35:47.137Z,22.19
2022-08-29T17:38:18.505Z,22.16
2022-08-29T17:40:47.847Z,22.13
2022-08-29T17:43:21.251Z,22.13
2022-08-29T17:45:49.868Z,22.21
2022-08-29T17:48:20.346Z,22.00
2022-08-29T17:50:49.353Z,22.00
2022-08-29T17:53:18.743Z,22.01
2022-08-29T17:55:55.234Z,22.01
2022-08-29T17:58:23.614Z,21.98
2022-08-29T18:00:54.847Z,21.92
2022-08-29T18:03:25.367Z,21.88
2022-08-29T18:05:55.799Z,21.87
2022-08-29T18:08:25.736Z,21.83
2022-08-29T18:10:54.319Z,21.88
2022-08-29T18:13:22.703Z,21.79
2022-08-29T18:15:52.745Z,21.76
2022-08-29T18:18:23.281Z,21.86
2022-08-29T18:20:54.375Z,21.92
2022-08-29T18:23:25.499Z,21.88
2022-08-29T18:25:56.805Z,21.75
2022-08-29T18:28:27.089Z,21.82
2022-08-29T18:30:56.559Z,21.79
2022-08-29T18:33:38.885Z,21.71
2022-08-29T18:36:13.710Z,21.75
2022-08-29T18:38:44.463Z,21.65
2022-08-29T18:41:18.393Z,21.60
2022-08-29T18:43:50.296Z,21.61
2022-08-29T18:46:19.199Z,21.69
2022-08-29T18:48:48.847Z,21.62
2022-08-29T18:51:27.856Z,21.52
2022-08-29T18:53:58.412Z,21.49
2022-08-29T18:56:28.343Z,21.43
2022-08-29T18:59:01.210Z,21.27
2022-08-29T19:01:37.024Z,21.24
2022-08-29T19:04:07.758Z,21.12
2022-08-29T19:06:37.911Z,21.14
2022-08-29T19:09:06.296Z,21.14
2022-08-29T19:11:45.130Z,21.25
2022-08-29T19:14:14.889Z,21.38
2022-08-29T19:16:43.484Z,21.49
2022-08-29T19:19:15.942Z,21.29
2022-08-29T19:21:46.523Z,21.05
2022-08-29T19:24:16.461Z,20.96
2022-08-29T19:26:55.745Z,20.88
2022-08-29T19:29:27.156Z,20.77
2022-08-29T19:31:55.827Z,20.72
2022-08-29T19:34:25.343Z,20.70
2022-08-29T19:36:55.672Z,20.68
2022-08-29T19:39:27.410Z,20.70
2022-08-29T19:42:04.329Z,20.97
2022-08-29T19:44:35.959Z,21.16
2022-08-29T19:47:07.391Z,20.79
2022-08-29T19:49:41.000Z,20.66
2022-08-29T19:52:15.370Z,20.58
2022-08-29T19:54:44.561Z,20.56
2022-08-29T19:57:14.982Z,20.66
2022-08-29T19:59:45.382Z,20.77
2022-08-29T20:02:16.035Z,20.70
2022-08-29T20:04:44.696Z,20.63
2022-08-29T20:07:15.973Z,20.64
2022-08-29T20:09:44.342Z,20.52
2022-08-29T20:12:13.824Z,20.58
2022-08-29T20:14:42.273Z,20.70
2022-08-29T20:17:11.935Z,20.58
2022-08-29T20:19:40.991Z,20.41
2022-08-29T20:22:09.450Z,20.53
2022-08-29T20:24:39.518Z,20.52
2022-08-29T20:27:10.678Z,20.46
2022-08-29T20:29:39.278Z,20.36
2022-08-29T20:32:07.689Z,20.28
2022-08-29T20:34:36.057Z,20.35
2022-08-29T20:37:12.509Z,20.38
2022-08-29T20:39:48.968Z,20.48
2022-08-29T20:42:20.941Z,20.42
2022-08-29T20:44:49.395Z,20.34
2022-08-29T20:47:19.104Z,20.30
2022-08-29T20:49:47.961Z,20.24
2022-08-29T20:52:19.094Z,20.36
2022-08-29T20:54:47.770Z,20.38
2022-08-29T20:57:16.953Z,20.35
2022-08-29T20:59:47.878Z,20.40
2022-08-29T21:02:17.801Z,20.36
2022-08-29T21:05:05.491Z,20.46
2022-08-29T21:07:33.806Z,20.48
2022-08-29T21:10:02.228Z,20.40
2022-08-29T21:12:30.620Z,20.44
2022-08-29T21:14:58.896Z,20.44
2022-08-29T21:17:27.573Z,20.34
2022-08-29T21:19:56.114Z,20.44
2022-08-29T21:22:25.233Z,20.63
2022-08-29T21:24:55.642Z,20.47
2022-08-29T21:27:24.125Z,20.39
2022-08-29T21:29:56.800Z,20.33
2022-08-29T21:32:25.247Z,20.26
2022-08-29T21:34:53.524Z,20.37
2022-08-29T21:37:22.104Z,20.23
2022-08-29T21:39:50.388Z,20.15
2022-08-29T21:42:19.037Z,20.30
2022-08-29T21:44:47.472Z,20.36
2022-08-29T21:47:17.978Z,20.27
2022-08-29T21:49:48.772Z,20.30
2022-08-29T21:52:17.746Z,20.35
2022-08-29T21:54:46.184Z,20.28
2022-08-29T21:57:17.657Z,20.25
2022-08-29T21:59:46.160Z,20.29
2022-08-29T22:02:14.856Z,20.27
2022-08-29T22:04:43.211Z,20.22
2022-08-29T22:07:13.413Z,20.24
2022-08-29T22:09:41.947Z,20.07
2022-08-29T22:12:10.260Z,20.13
2022-08-29T22:14:56.852Z,20.18
2022-08-29T22:17:25.209Z,20.09
2022-08-29T22:19:53.535Z,20.11
2022-08-29T22:22:21.789Z,20.12
2022-08-29T22:24:50.179Z,20.09
2022-08-29T22:27:18.614Z,19.98
2022-08-29T22:29:47.572Z,19.80
2022-08-29T22:32:15.879Z,19.85
2022-08-29T22:34:44.250Z,19.81
2022-08-29T22:37:12.526Z,19.77
2022-08-29T22:39:41.007Z,19.89
2022-08-29T22:42:09.332Z,19.93
2022-08-29T22:45:02.075Z,19.91
2022-08-29T22:47:26.045Z,19.87
2022-08-29T22:49:55.062Z,19.68
2022-08-29T22:52:23.934Z,20.10
2022-08-29T22:54:52.226Z,19.97
2022-08-29T22:57:20.564Z,19.74
2022-08-29T22:59:51.824Z,19.79
2022-08-29T23:02:20.704Z,20.15
2022-08-29T23:04:49.656Z,20.07
2022-08-29T23:07:19.540Z,19.85
2022-08-29T23:09:47.715Z,19.75
2022-08-29T23:12:16.704Z,19.67
2022-08-29T23:14:48.102Z,19.64
2022-08-29T23:17:17.398Z,19.48
2022-08-29T23:19:45.854Z,19.29
2022-08-29T23:22:14.274Z,19.33
2022-08-29T23:24:58.471Z,19.38
2022-08-29T23:27:30.854Z,19.43
2022-08-29T23:29:59.753Z,19.39
2022-08-29T23:32:28.202Z,19.47
2022-08-29T23:34:56.837Z,19.45
2022-08-29T23:37:25.905Z,19.36
2022-08-29T23:39:54.144Z,19.33
2022-08-29T23:42:22.442Z,19.36
2022-08-29T23:44:50.745Z,19.36
2022-08-29T23:47:19.037Z,19.14
2022-08-29T23:49:47.383Z,19.16
2022-08-29T23:52:15.679Z,19.04
2022-08-29T23:54:43.996Z,19.08
2022-08-29T23:57:12.288Z,19.23
2022-08-29T23:59:59.390Z,19.23
